Time;durP1;ratioP1;P1;durP2;ratioP2;P2;SDS_P1;SDS_P2;PMS_P1;PMS_P2;Temp;Humidity;BMP_temperature;BMP_pressure;BME280_temperature;BME280_humidity;BME280_pressure;Samples;Min_cycle;Max_cycle;Signal;HPM_P1;HPM_P2
2023/03/29 00:00:00;;;;;;;3.70;2.93;;;9.80;53.50;;;12.55;40.02;101713.94;5054698;28;20188;-61
2023/03/29 00:02:29;;;;;;;7.30;3.97;;;9.80;53.50;;;12.53;40.06;101705.31;5054691;28;20214;-63
2023/03/29 00:05:00;;;;;;;7.73;3.60;;;9.80;53.70;;;12.53;40.28;101703.50;5043707;28;20587;-64
2023/03/29 00:07:28;;;;;;;6.80;3.83;;;9.70;54.00;;;12.55;40.16;101711.28;5053973;28;20268;-62
2023/03/29 00:09:56;;;;;;;4.63;3.10;;;9.80;54.40;;;12.56;40.10;101699.72;5054474;28;20280;-59
2023/03/29 00:12:24;;;;;;;6.13;3.13;;;9.70;54.20;;;12.58;40.33;101698.56;5045480;28;20212;-63
2023/03/29 00:14:51;;;;;;;7.63;3.33;;;9.70;54.50;;;12.59;40.26;101691.50;5054208;28;20213;-64
2023/03/29 00:17:19;;;;;;;3.87;3.03;;;9.70;54.40;;;12.58;40.49;101685.38;5054620;28;20186;-61
2023/03/29 00:19:47;;;;;;;3.77;2.80;;;9.80;54.60;;;12.57;40.57;101682.91;5052975;28;20186;-61
2023/03/29 00:22:15;;;;;;;7.37;2.77;;;9.80;54.50;;;12.56;40.54;101681.25;5054208;28;20197;-60
2023/03/29 00:24:42;;;;;;;7.57;3.50;;;9.80;54.50;;;12.53;40.25;101674.47;5043365;28;20230;-61
2023/03/29 00:27:09;;;;;;;5.17;3.20;;;9.70;54.50;;;12.52;40.58;101669.38;5034365;28;20214;-61
2023/03/29 00:29:36;;;;;;;8.70;3.80;;;9.70;54.50;;;12.52;40.39;101670.19;5035428;28;20293;-62
2023/03/29 00:32:04;;;;;;;5.17;2.97;;;9.70;54.70;;;12.54;40.63;101670.03;5033209;28;20206;-61
2023/03/29 00:34:31;;;;;;;6.00;3.33;;;9.70;55.00;;;12.56;40.63;101660.13;5042580;28;20218;-61
2023/03/29 00:36:59;;;;;;;6.57;3.07;;;9.70;55.10;;;12.56;40.28;101660.94;5054228;28;20662;-60
2023/03/29 00:39:26;;;;;;;5.90;3.13;;;9.70;55.00;;;12.58;40.55;101663.41;5054227;28;20581;-61
2023/03/29 00:41:54;;;;;;;5.07;3.37;;;9.70;55.30;;;12.57;40.27;101662.63;5054438;28;20197;-61
2023/03/29 00:45:02;;;;;;;4.27;3.30;;;9.70;55.20;;;12.53;40.96;101660.44;5051052;28;20272;-61
2023/03/29 00:47:38;;;;;;;5.63;2.87;;;9.70;55.60;;;12.55;40.89;101658.47;5054132;28;20185;-61
2023/03/29 00:50:14;;;;;;;7.03;2.90;;;9.70;55.70;;;12.50;41.12;101655.50;5053974;28;20193;-60
2023/03/29 00:52:49;;;;;;;5.33;3.17;;;9.70;55.60;;;12.39;41.53;101647.88;5054162;28;20186;-62
2023/03/29 00:55:21;;;;;;;5.03;3.37;;;9.70;55.80;;;12.29;41.18;101647.25;5052730;28;20217;-62
2023/03/29 00:57:52;;;;;;;5.77;3.07;;;9.60;55.80;;;12.22;41.74;101650.50;5054042;28;20205;-60
2023/03/29 01:00:30;;;;;;;6.50;3.57;;;9.50;56.10;;;12.08;41.37;101645.88;5053347;28;20190;-61
2023/03/29 01:03:03;;;;;;;4.93;3.00;;;9.50;56.00;;;12.00;41.92;101643.22;5054205;28;20214;-61
2023/03/29 01:05:39;;;;;;;8.80;3.10;;;9.40;56.40;;;11.95;42.17;101645.53;5033973;28;20679;-61
2023/03/29 01:08:16;;;;;;;4.50;2.70;;;9.30;56.40;;;11.95;42.26;101644.69;5032385;28;20312;-62
2023/03/29 01:10:50;;;;;;;7.73;3.47;;;9.30;56.50;;;11.94;42.16;101649.13;5051704;28;20190;-61
2023/03/29 01:13:25;;;;;;;9.70;3.27;;;9.30;56.80;;;11.94;41.94;101637.75;5052906;28;20200;-60
2023/03/29 01:15:55;;;;;;;5.13;3.20;;;9.20;56.90;;;11.86;42.27;101635.91;5040477;28;20192;-60
2023/03/29 01:18:22;;;;;;;6.27;3.10;;;9.10;56.80;;;11.82;42.58;101631.13;5042803;28;20210;-61
2023/03/29 01:21:13;;;;;;;7.77;3.67;;;9.10;56.90;;;11.77;42.90;101631.59;5037774;28;20260;-62
2023/03/29 01:24:05;;;;;;;5.83;3.40;;;9.10;57.30;;;11.72;42.80;101627.81;5040675;28;20366;-62
2023/03/29 01:26:50;;;;;;;4.37;3.27;;;9.10;57.30;;;11.65;42.79;101627.56;5057246;28;20201;-62
2023/03/29 01:29:27;;;;;;;4.50;2.87;;;9.00;57.60;;;11.61;42.98;101620.97;5057462;28;20247;-62
2023/03/29 01:32:03;;;;;;;6.63;3.63;;;9.00;57.30;;;11.53;42.76;101623.56;5037133;28;20190;-62
2023/03/29 01:34:39;;;;;;;5.27;3.10;;;8.90;57.70;;;11.52;42.94;101620.13;5047327;28;20209;-59
2023/03/29 01:37:14;;;;;;;7.33;3.67;;;8.90;57.50;;;11.45;43.27;101615.63;5057470;28;20281;-61
2023/03/29 01:39:41;;;;;;;5.57;3.33;;;8.80;57.90;;;11.39;43.36;101608.34;5056455;28;20200;-62
2023/03/29 01:42:30;;;;;;;7.17;3.23;;;8.80;57.90;;;11.37;43.49;101602.41;5057118;28;20683;-58
2023/03/29 01:45:09;;;;;;;6.40;3.47;;;8.80;58.00;;;11.31;43.45;101595.16;5047919;28;20217;-61
2023/03/29 01:47:47;;;;;;;5.87;3.67;;;8.80;58.40;;;11.30;43.82;101601.41;5056882;28;20212;-62
2023/03/29 01:50:23;;;;;;;6.43;3.50;;;8.70;58.30;;;11.28;43.98;101603.38;5056222;28;20280;-61
2023/03/29 01:52:58;;;;;;;6.00;3.43;;;8.70;58.40;;;11.26;43.38;101598.28;5057242;28;20212;-61
2023/03/29 01:55:32;;;;;;;5.23;3.17;;;8.70;58.60;;;11.28;43.93;101592.81;5056765;28;20220;-62
2023/03/29 01:58:03;;;;;;;4.80;3.53;;;8.60;58.80;;;11.25;44.18;101593.13;5057450;28;20662;-63
2023/03/29 02:00:35;;;;;;;5.10;3.30;;;8.60;59.20;;;11.22;44.17;101588.19;5057423;28;20181;-60
2023/03/29 02:03:08;;;;;;;4.67;3.53;;;8.60;59.20;;;11.22;44.10;101577.66;5055544;28;20182;-61
2023/03/29 02:05:38;;;;;;;8.53;4.63;;;8.60;59.30;;;11.20;44.25;101575.16;5053048;28;20258;-62
2023/03/29 02:08:10;;;;;;;5.77;3.27;;;8.60;59.60;;;11.17;44.13;101569.41;5035181;28;20206;-61
2023/03/29 02:10:38;;;;;;;6.40;3.53;;;8.60;59.60;;;11.12;44.96;101572.50;5053394;28;20190;-60
2023/03/29 02:13:05;;;;;;;5.13;4.07;;;8.50;59.90;;;11.07;44.77;101568.69;5056552;28;20654;-61
2023/03/29 02:15:34;;;;;;;7.57;3.83;;;8.50;60.30;;;11.01;45.65;101564.03;5054692;28;20582;-61
2023/03/29 02:18:02;;;;;;;8.13;4.50;;;8.50;60.60;;;10.98;45.15;101554.66;5068586;28;20194;-62
2023/03/29 02:20:35;;;;;;;5.13;3.67;;;8.50;60.80;;;10.96;45.46;101553.16;5036597;28;20195;-61
2023/03/29 02:23:10;;;;;;;5.43;3.83;;;8.40;61.00;;;10.93;45.87;101554.31;5036403;28;20252;-62
2023/03/29 02:25:37;;;;;;;6.70;4.60;;;8.40;61.10;;;10.91;46.04;101555.44;5049565;28;20224;-62
2023/03/29 02:28:06;;;;;;;6.50;4.40;;;8.30;61.40;;;10.83;46.30;101551.78;5035109;28;20256;-61
2023/03/29 02:30:45;;;;;;;7.60;4.07;;;8.30;62.00;;;10.78;45.90;101542.69;5052198;28;20194;-60
2023/03/29 02:33:16;;;;;;;7.83;4.83;;;8.30;62.00;;;10.76;46.70;101539.38;5052566;28;20204;-61
2023/03/29 02:35:53;;;;;;;5.40;4.50;;;8.30;62.50;;;10.72;46.57;101538.84;5051646;28;20252;-62
2023/03/29 02:38:25;;;;;;;7.33;4.63;;;8.20;63.10;;;10.68;47.60;101534.06;5054861;28;20212;-61
2023/03/29 02:40:54;;;;;;;6.83;4.47;;;8.20;63.50;;;10.67;47.67;101529.78;5055885;28;20247;-62
2023/03/29 02:43:24;;;;;;;6.10;5.50;;;8.20;64.00;;;10.67;47.80;101527.97;5056672;28;20213;-62
2023/03/29 02:45:54;;;;;;;6.30;5.53;;;8.10;64.70;;;10.69;47.39;101522.56;5055298;28;20255;-60
2023/03/29 02:48:26;;;;;;;7.20;6.00;;;8.10;65.00;;;10.68;48.27;101515.63;5055386;28;20251;-61
2023/03/29 02:50:59;;;;;;;10.07;5.53;;;8.10;65.50;;;10.71;47.53;101516.16;5037061;28;20202;-60
2023/03/29 02:53:43;;;;;;;8.57;5.13;;;8.20;65.30;;;10.72;48.02;101517.00;5035062;28;20175;-60
2023/03/29 02:56:10;;;;;;;6.70;5.03;;;8.10;66.50;;;10.73;47.89;101514.19;5034918;28;20551;-61
2023/03/29 02:58:37;;;;;;;7.10;4.70;;;8.10;65.60;;;10.75;47.93;101508.75;5035316;28;20195;-59
2023/03/29 03:01:08;;;;;;;7.17;5.60;;;8.10;65.60;;;10.74;48.02;101510.56;5036274;28;20534;-61
2023/03/29 03:03:35;;;;;;;7.63;5.97;;;8.20;66.40;;;10.76;48.26;101511.25;5034008;28;20222;-62
2023/03/29 03:06:03;;;;;;;7.70;6.03;;;8.10;66.70;;;10.72;48.72;101502.00;5034639;28;20191;-61
2023/03/29 03:08:31;;;;;;;11.07;6.87;;;8.20;67.30;;;10.73;49.01;101498.41;5034913;28;20195;-62
2023/03/29 03:10:58;;;;;;;7.57;6.57;;;8.10;67.50;;;10.72;49.28;101507.25;5053864;28;21853;-64
2023/03/29 03:13:25;;;;;;;10.40;6.97;;;8.10;67.80;;;10.74;49.06;101501.88;5052944;28;20276;-62
2023/03/29 03:15:52;;;;;;;9.13;7.23;;;8.10;67.90;;;10.72;49.54;101491.47;5034096;28;20232;-61
2023/03/29 03:18:22;;;;;;;9.63;7.30;;;8.10;68.60;;;10.71;49.70;101491.63;5045033;28;20209;-62
2023/03/29 03:20:56;;;;;;;7.90;7.10;;;8.10;69.20;;;10.68;50.02;101487.50;5034780;28;20206;-62
2023/03/29 03:23:23;;;;;;;9.67;8.30;;;8.10;69.60;;;10.68;50.54;101482.25;5036876;28;20263;-62
2023/03/29 03:25:51;;;;;;;9.40;7.57;;;8.10;70.10;;;10.66;51.16;101486.00;5035119;28;20658;-62
2023/03/29 03:28:19;;;;;;;9.13;7.67;;;8.10;70.50;;;10.70;50.85;101477.63;5035519;28;20256;-60
2023/03/29 03:30:46;;;;;;;9.20;8.30;;;8.10;70.70;;;10.69;51.16;101485.72;5054423;28;20198;-59
2023/03/29 03:33:13;;;;;;;10.00;8.90;;;8.10;71.50;;;10.67;51.57;101472.69;5054794;28;20202;-64
2023/03/29 03:35:41;;;;;;;11.87;8.53;;;8.10;71.80;;;10.62;52.34;101472.34;5055567;28;20220;-64
2023/03/29 03:38:09;;;;;;;11.60;9.20;;;8.10;72.20;;;10.67;52.34;101472.69;5054918;28;20316;-60
2023/03/29 03:40:37;;;;;;;12.00;8.57;;;8.10;72.10;;;10.71;52.12;101463.50;5053855;28;20207;-61
2023/03/29 03:43:04;;;;;;;10.80;8.70;;;8.10;72.30;;;10.75;51.44;101464.84;5054596;28;20202;-60
2023/03/29 03:45:31;;;;;;;11.80;9.63;;;8.20;72.40;;;10.74;51.91;101463.16;5054385;28;20226;-59
2023/03/29 03:47:58;;;;;;;10.53;9.47;;;8.20;72.80;;;10.70;52.96;101455.75;5054844;28;20217;-59
2023/03/29 03:50:25;;;;;;;10.37;8.47;;;8.10;73.20;;;10.72;52.01;101454.59;5054280;28;20717;-60
2023/03/29 03:52:53;;;;;;;10.70;9.60;;;8.20;73.00;;;10.72;52.53;101461.72;5054768;28;20185;-61
2023/03/29 03:55:20;;;;;;;10.57;9.47;;;8.20;73.70;;;10.72;52.56;101459.06;5039993;28;20233;-60
2023/03/29 03:57:47;;;;;;;11.57;9.10;;;8.20;73.70;;;10.75;52.89;101464.84;5034759;28;20195;-60
2023/03/29 04:00:18;;;;;;;10.13;8.63;;;8.20;73.70;;;10.74;52.63;101457.09;5051008;28;20189;-60
2023/03/29 04:02:46;;;;;;;11.53;9.23;;;8.20;74.20;;;10.78;52.90;101464.53;5054589;28;20181;-60
2023/03/29 04:05:15;;;;;;;14.67;9.47;;;8.20;73.90;;;10.80;53.13;101464.34;5054069;28;20717;-61
2023/03/29 04:07:42;;;;;;;10.43;8.90;;;8.20;74.10;;;10.77;52.76;101452.34;5040378;28;20259;-60
2023/03/29 04:10:11;;;;;;;11.53;9.93;;;8.20;74.30;;;10.74;53.09;101446.56;5042856;28;20198;-60
2023/03/29 04:12:38;;;;;;;10.50;9.50;;;8.20;74.80;;;10.72;53.30;101444.06;5045814;28;20248;-61
2023/03/29 04:15:07;;;;;;;9.53;8.53;;;8.20;74.70;;;10.79;53.63;101452.19;5054037;28;20224;-61
2023/03/29 04:17:34;;;;;;;10.70;9.13;;;8.20;74.80;;;10.78;53.14;101442.63;5050879;28;20210;-60
2023/03/29 04:20:09;;;;;;;11.53;9.27;;;8.20;75.00;;;10.79;53.92;101447.72;5051224;28;20224;-61
2023/03/29 04:22:36;;;;;;;9.40;8.50;;;8.20;75.20;;;10.74;53.71;101447.38;5041687;28;20235;-63
2023/03/29 04:25:05;;;;;;;10.37;9.03;;;8.20;75.30;;;10.75;54.00;101443.78;5053635;28;20221;-64
2023/03/29 04:27:33;;;;;;;9.73;8.00;;;8.20;75.20;;;10.70;53.62;101438.16;5053927;28;20186;-60
2023/03/29 04:30:00;;;;;;;10.43;9.27;;;8.20;75.00;;;10.74;53.72;101436.84;5053335;28;20194;-62
2023/03/29 04:32:27;;;;;;;8.73;7.83;;;8.20;74.80;;;10.79;53.51;101442.47;5053756;28;20268;-61
2023/03/29 04:34:54;;;;;;;9.77;8.37;;;8.20;75.00;;;10.86;52.97;101445.31;5046397;28;20218;-61
2023/03/29 04:37:21;;;;;;;8.23;7.43;;;8.20;75.20;;;10.83;53.05;101443.81;5033914;28;20191;-60
2023/03/29 04:39:48;;;;;;;8.77;7.87;;;8.20;76.10;;;10.77;53.39;101444.44;5033912;28;20266;-61
2023/03/29 04:42:16;;;;;;;9.90;7.60;;;8.20;75.50;;;10.69;54.02;101438.31;5016044;28;20794;-61
2023/03/29 04:44:45;;;;;;;9.37;7.20;;;8.20;75.60;;;10.65;54.12;101432.53;5053061;28;20242;-62
2023/03/29 04:47:12;;;;;;;9.03;7.63;;;8.20;75.60;;;10.69;53.62;101439.16;5053901;28;20186;-63
2023/03/29 04:49:40;;;;;;;10.07;7.50;;;8.20;75.60;;;10.54;54.24;101440.72;5052477;28;20197;-61
2023/03/29 04:52:07;;;;;;;9.80;7.43;;;8.20;75.90;;;10.51;54.71;101430.50;5053497;28;20200;-60
2023/03/29 04:54:36;;;;;;;8.87;6.97;;;8.10;76.00;;;10.57;54.36;101434.31;5033450;28;20717;-62
2023/03/29 04:57:04;;;;;;;8.07;7.27;;;8.10;75.80;;;10.64;54.16;101437.97;5034181;28;20187;-62
2023/03/29 04:59:31;;;;;;;8.73;6.90;;;8.20;75.80;;;10.60;54.66;101434.81;5033812;28;20308;-62
2023/03/29 05:02:03;;;;;;;8.87;6.73;;;8.10;76.00;;;10.66;53.99;101425.47;5042072;28;20189;-61
2023/03/29 05:04:31;;;;;;;8.23;6.73;;;8.10;75.90;;;10.69;54.13;101427.78;5034532;28;20215;-61
2023/03/29 05:07:00;;;;;;;7.20;6.50;;;8.10;76.00;;;10.70;54.06;101430.25;5016761;28;20198;-62
2023/03/29 05:09:28;;;;;;;12.10;7.07;;;8.20;76.00;;;10.69;54.45;101420.72;5040377;28;20312;-63
2023/03/29 05:11:55;;;;;;;7.23;5.90;;;8.10;76.10;;;10.74;53.82;101421.03;5053915;28;20201;-66
2023/03/29 05:14:22;;;;;;;7.97;6.33;;;8.20;76.00;;;10.71;54.08;101416.13;5051453;28;20213;-69
2023/03/29 05:16:49;;;;;;;7.43;6.03;;;8.20;76.10;;;10.67;54.55;101409.50;5053524;28;20198;-63
2023/03/29 05:19:20;;;;;;;7.83;5.77;;;8.20;76.10;;;10.73;53.56;101403.63;5053111;28;20193;-62
2023/03/29 05:21:49;;;;;;;8.37;5.73;;;8.20;75.80;;;10.79;53.91;101399.53;5053047;28;20209;-59
2023/03/29 05:24:16;;;;;;;8.00;6.17;;;8.20;76.00;;;10.83;53.44;101399.06;5053221;28;20217;-63
2023/03/29 05:26:43;;;;;;;6.40;5.60;;;8.20;75.90;;;10.86;53.79;101403.97;5054203;28;20270;-62
2023/03/29 05:29:11;;;;;;;8.00;5.83;;;8.20;75.70;;;10.91;53.44;101405.31;5052581;28;20193;-61
2023/03/29 05:31:38;;;;;;;6.33;5.00;;;8.30;76.70;;;10.91;53.49;101405.31;5053595;28;20677;-66
2023/03/29 05:34:06;;;;;;;8.47;5.70;;;8.30;75.80;;;10.87;53.37;101405.63;5038960;28;20241;-64
2023/03/29 05:36:34;;;;;;;5.60;5.00;;;8.30;75.70;;;10.93;53.21;101408.63;5034062;28;20214;-62
2023/03/29 05:39:01;;;;;;;6.23;4.63;;;8.30;75.60;;;10.93;53.27;101406.00;5033192;28;20603;-63
2023/03/29 05:41:28;;;;;;;5.97;4.87;;;8.30;75.40;;;10.95;53.27;101404.00;5034592;28;20554;-64
2023/03/29 05:43:56;;;;;;;5.20;4.70;;;8.30;75.50;;;11.02;53.46;101410.28;5037772;28;20210;-64
2023/03/29 05:46:23;;;;;;;6.03;5.13;;;8.30;75.40;;;11.01;53.56;101400.72;5050341;28;20242;-60
2023/03/29 05:48:50;;;;;;;6.30;5.30;;;8.30;75.40;;;11.07;52.69;101400.09;5052355;28;20194;-62
2023/03/29 05:51:23;;;;;;;5.50;5.00;;;8.40;75.50;;;11.05;53.20;101402.06;5053592;28;20281;-63
2023/03/29 05:53:52;;;;;;;6.07;5.03;;;8.40;75.60;;;11.06;53.07;101398.44;5052173;28;20206;-61
2023/03/29 05:56:19;;;;;;;6.30;5.57;;;8.40;75.50;;;10.97;53.55;101404.66;5058700;28;20210;-61
2023/03/29 05:58:48;;;;;;;6.40;5.20;;;8.40;75.50;;;11.05;53.30;101402.06;5060472;28;20198;-62
2023/03/29 06:01:16;;;;;;;5.70;5.10;;;8.40;75.20;;;11.05;53.60;101402.06;5055078;28;20296;-63
2023/03/29 06:03:46;;;;;;;5.80;5.20;;;8.50;75.40;;;11.00;52.85;101402.56;5057338;28;20218;-64
2023/03/29 06:06:15;;;;;;;7.33;5.07;;;8.40;75.40;;;11.04;53.40;101405.69;5037141;28;20242;-62
2023/03/29 06:08:43;;;;;;;5.53;4.90;;;8.50;75.20;;;11.07;53.70;101408.00;5039871;28;20198;-61
2023/03/29 06:11:13;;;;;;;7.87;5.20;;;8.50;75.50;;;11.12;52.71;101405.72;5055679;28;20212;-62
2023/03/29 06:13:40;;;;;;;6.80;5.13;;;8.50;75.40;;;11.13;52.95;101407.34;5045825;28;20241;-64
2023/03/29 06:16:09;;;;;;;6.87;5.20;;;8.60;75.40;;;11.16;53.01;101404.38;5056395;28;20562;-62
2023/03/29 06:18:40;;;;;;;7.10;4.57;;;8.60;75.60;;;11.23;52.93;101400.94;5056006;28;20549;-61
2023/03/29 06:21:08;;;;;;;5.67;4.53;;;8.60;75.60;;;11.28;53.56;101397.81;5045657;28;20578;-61
2023/03/29 06:23:35;;;;;;;8.03;5.37;;;8.60;75.60;;;11.32;53.49;101388.59;5034564;28;20199;-63
2023/03/29 06:26:04;;;;;;;9.80;5.20;;;8.60;75.50;;;11.31;53.52;101394.88;5036243;28;20685;-62
2023/03/29 06:28:33;;;;;;;7.10;4.63;;;8.70;75.50;;;11.34;53.49;101399.78;5036874;28;20195;-61
2023/03/29 06:31:01;;;;;;;6.40;4.53;;;8.70;75.80;;;11.41;52.79;101392.91;5043578;28;20209;-64
2023/03/29 06:33:31;;;;;;;4.83;4.40;;;8.70;75.60;;;11.47;53.37;101402.78;5036849;28;20194;-61
2023/03/29 06:35:58;;;;;;;6.23;4.93;;;8.70;75.60;;;11.54;53.11;101406.41;5035700;28;20246;-61
2023/03/29 06:38:27;;;;;;;8.27;4.90;;;8.80;75.40;;;11.56;52.88;101396.53;5036288;28;20194;-62
2023/03/29 06:41:01;;;;;;;5.93;4.13;;;8.80;75.50;;;11.56;52.74;101386.81;5042750;28;20193;-62
2023/03/29 06:43:28;;;;;;;6.40;4.50;;;8.80;75.40;;;11.63;52.88;101394.88;5055110;28;20195;-63
2023/03/29 06:45:57;;;;;;;6.27;5.23;;;8.90;75.50;;;11.64;52.92;101400.97;5055744;28;20212;-62
2023/03/29 06:48:24;;;;;;;8.43;5.00;;;8.90;75.70;;;11.65;52.48;101400.81;5055644;28;20194;-61
2023/03/29 06:50:53;;;;;;;8.57;5.03;;;8.90;75.50;;;11.65;52.90;101411.34;5049916;28;20190;-60
2023/03/29 06:53:20;;;;;;;6.00;4.27;;;8.90;75.30;;;11.64;52.90;101415.00;5034982;28;20663;-63
2023/03/29 06:55:49;;;;;;;6.13;4.73;;;8.90;75.50;;;11.63;52.87;101407.22;5042018;28;20186;-61
2023/03/29 06:58:15;;;;;;;7.23;4.90;;;8.90;75.40;;;11.65;52.67;101407.91;5055562;28;20570;-65
2023/03/29 07:00:42;;;;;;;6.33;4.20;;;8.90;75.50;;;11.70;52.74;101403.81;5054860;28;20193;-61
2023/03/29 07:03:18;;;;;;;6.43;4.93;;;8.90;75.50;;;11.68;52.39;101400.50;5055861;28;20197;-62
2023/03/29 07:05:46;;;;;;;6.77;4.47;;;9.00;75.70;;;11.63;53.00;101400.16;5055904;28;20281;-59
2023/03/29 07:08:15;;;;;;;4.93;4.43;;;9.00;75.40;;;11.60;52.92;101392.56;5052945;28;20185;-62
2023/03/29 07:10:46;;;;;;;5.10;4.60;;;8.90;75.20;;;11.63;52.63;101391.41;5053149;28;20196;-60
2023/03/29 07:13:14;;;;;;;4.63;3.87;;;9.00;75.50;;;11.63;52.91;101394.88;5055004;28;20267;-60
2023/03/29 07:15:42;;;;;;;5.17;4.03;;;9.00;75.50;;;11.71;52.70;101389.66;5055124;28;20603;-61
2023/03/29 07:18:14;;;;;;;5.37;4.67;;;9.00;75.30;;;11.73;53.01;101398.22;5055238;28;20297;-62
2023/03/29 07:20:41;;;;;;;6.13;5.30;;;9.00;75.40;;;11.70;53.00;101393.25;5053275;28;20279;-62
2023/03/29 07:23:09;;;;;;;4.63;4.20;;;9.00;75.50;;;11.65;53.10;101395.53;5043918;28;20213;-60
2023/03/29 07:25:37;;;;;;;6.00;5.03;;;9.00;75.40;;;11.67;52.98;101398.81;5033472;28;20298;-62
2023/03/29 07:28:05;;;;;;;4.90;4.37;;;9.00;75.20;;;11.75;52.34;101401.50;5017484;28;20198;-63
2023/03/29 07:30:32;;;;;;;5.23;4.73;;;9.00;75.00;;;11.80;52.63;101404.47;5039191;28;20186;-60
2023/03/29 07:32:59;;;;;;;5.17;4.40;;;9.10;75.40;;;11.87;52.44;101399.34;5054920;28;20220;-62
2023/03/29 07:35:29;;;;;;;14.27;10.50;;;9.10;75.10;;;11.91;52.63;101398.84;5053509;28;20248;-62
2023/03/29 07:37:57;;;;;;;4.73;4.23;;;9.10;75.20;;;11.99;52.19;101398.84;5035235;28;20201;-61
2023/03/29 07:40:24;;;;;;;6.80;4.87;;;9.20;75.20;;;12.00;51.87;101395.22;5038206;28;20186;-62
2023/03/29 07:42:55;;;;;;;5.40;4.90;;;9.20;74.80;;;12.02;51.71;101403.78;5054536;28;20243;-63
2023/03/29 07:45:24;;;;;;;5.80;4.40;;;9.20;74.70;;;12.01;52.08;101401.31;5055250;28;20556;-63
2023/03/29 07:47:57;;;;;;;5.13;4.30;;;9.30;74.70;;;12.09;51.66;101410.03;5054576;28;20235;-61
2023/03/29 07:50:25;;;;;;;6.03;4.57;;;9.30;74.40;;;12.18;51.71;101411.69;5051749;28;20588;-60
2023/03/29 07:52:55;;;;;;;7.13;6.00;;;9.30;74.40;;;12.25;51.47;101411.81;5044269;28;20194;-63
2023/03/29 07:55:23;;;;;;;5.47;4.67;;;9.40;74.20;;;12.28;51.12;101406.22;5036190;28;20218;-60
2023/03/29 07:57:50;;;;;;;5.37;4.87;;;9.40;74.10;;;12.35;51.03;101403.72;5033690;28;20206;-60
2023/03/29 08:00:18;;;;;;;4.87;3.93;;;9.40;73.90;;;12.32;51.13;101399.59;5033267;28;20199;-61
2023/03/29 08:02:51;;;;;;;5.53;5.00;;;9.50;73.70;;;12.35;51.00;101399.25;5036404;28;20185;-64
2023/03/29 08:05:21;;;;;;;8.07;5.07;;;9.50;73.40;;;12.37;50.63;101397.28;5049380;28;20229;-64
2023/03/29 08:08:08;;;;;;;6.07;4.30;;;9.60;73.60;;;12.40;51.40;101402.22;5037866;28;20202;-61
2023/03/29 08:10:38;;;;;;;6.93;4.87;;;9.60;73.60;;;12.45;50.89;101399.91;5046253;28;20526;-63
2023/03/29 08:13:07;;;;;;;6.53;5.27;;;9.60;73.50;;;12.43;50.91;101401.84;5049488;28;20205;-63
2023/03/29 08:15:37;;;;;;;5.43;3.90;;;9.60;73.40;;;12.46;51.03;101395.41;5048744;28;20354;-61
2023/03/29 08:18:05;;;;;;;7.13;4.67;;;9.70;73.20;;;12.47;50.66;101403.19;5046511;28;20206;-65
2023/03/29 08:20:33;;;;;;;5.53;4.40;;;9.70;73.20;;;12.52;50.79;101402.66;5050893;28;20247;-62
2023/03/29 08:23:00;;;;;;;5.93;5.20;;;9.70;73.10;;;12.46;50.70;101398.06;5052095;28;20205;-64
2023/03/29 08:25:28;;;;;;;6.70;5.97;;;9.80;73.10;;;12.45;51.37;101396.44;5043179;28;20222;-65
2023/03/29 08:27:56;;;;;;;5.47;4.73;;;9.70;73.40;;;12.48;51.25;101393.44;5049824;28;20201;-64
2023/03/29 08:30:23;;;;;;;7.87;5.37;;;9.70;73.60;;;12.48;51.40;101393.44;5044491;28;20202;-58
2023/03/29 08:32:51;;;;;;;6.13;4.60;;;9.80;73.80;;;12.57;51.15;101389.78;5047252;28;20265;-63
2023/03/29 08:35:21;;;;;;;6.00;5.20;;;9.80;73.50;;;12.70;50.74;101384.75;5043164;28;20245;-63
2023/03/29 08:37:49;;;;;;;6.23;5.30;;;9.90;73.60;;;12.68;51.04;101389.41;5046025;28;20229;-62
2023/03/29 08:40:21;;;;;;;7.53;5.25;;;9.90;73.30;;;13.21;49.33;101386.81;5037648;28;20599;-62
2023/03/29 08:43:10;;;;;;;5.90;4.80;;;9.90;73.80;;;12.81;50.26;101394.97;5044890;28;20252;-63
2023/03/29 08:45:48;;;;;;;5.33;4.83;;;10.00;72.40;;;12.77;50.50;101388.34;5049504;28;20264;-61
2023/03/29 08:48:27;;;;;;;5.23;4.73;;;10.00;72.10;;;12.83;50.81;101392.97;5041257;28;20638;-61
2023/03/29 08:51:02;;;;;;;5.50;4.60;;;10.10;72.10;;;12.99;50.46;101382.28;5048440;28;20244;-59
2023/03/29 08:53:37;;;;;;;5.90;4.60;;;10.20;72.10;;;13.15;50.37;101379.59;5044162;28;20207;-60
2023/03/29 08:56:13;;;;;;;5.50;5.00;;;10.20;72.10;;;13.30;49.93;101377.00;5047355;28;20185;-61
2023/03/29 08:58:43;;;;;;;8.07;6.03;;;10.30;72.00;;;13.18;50.21;101373.94;5048162;28;20189;-61
2023/03/29 09:01:11;;;;;;;6.47;5.83;;;10.30;72.00;;;13.17;50.51;101384.72;5044493;28;20250;-60
2023/03/29 09:03:46;;;;;;;7.10;5.60;;;10.40;72.10;;;13.27;50.27;101382.63;5041720;28;20209;-62
2023/03/29 09:06:20;;;;;;;10.43;7.63;;;10.40;71.90;;;13.45;50.09;101386.63;5046083;28;20202;-60
2023/03/29 09:08:49;;;;;;;12.23;5.57;;;10.50;72.00;;;13.63;49.76;101374.91;5044764;28;20267;-63
2023/03/29 09:11:48;;;;;;;8.57;5.77;;;10.60;71.90;;;13.80;49.40;101379.06;5049917;28;20193;-61
2023/03/29 09:14:40;;;;;;;7.63;5.67;;;10.70;71.80;;;13.89;49.33;101376.16;5052523;28;20324;-62
2023/03/29 09:17:33;;;;;;;9.77;6.23;;;10.80;71.60;;;13.94;49.04;101379.09;5045804;28;20266;-61
2023/03/29 09:20:18;;;;;;;7.03;5.57;;;10.90;72.10;;;13.88;49.37;101369.22;5046617;28;20212;-61
2023/03/29 09:22:59;;;;;;;6.07;5.47;;;10.90;71.10;;;13.93;49.14;101376.66;5048298;28;20288;-63
2023/03/29 09:25:46;;;;;;;6.37;5.63;;;11.00;70.90;;;14.00;48.98;101373.06;5049226;28;20832;-63
2023/03/29 09:28:33;;;;;;;7.70;6.27;;;11.00;70.80;;;14.08;49.21;101369.53;5027178;28;20221;-63
2023/03/29 09:31:11;;;;;;;10.63;7.50;;;11.10;71.20;;;14.23;48.85;101365.91;5052985;28;20691;-65
2023/03/29 09:33:45;;;;;;;7.10;6.23;;;11.20;71.20;;;14.27;48.92;101363.69;5040097;28;20661;-63
2023/03/29 09:36:22;;;;;;;7.47;5.70;;;11.20;71.80;;;14.26;48.69;101360.22;5040173;28;20194;-63
2023/03/29 09:38:53;;;;;;;9.83;6.90;;;11.20;70.80;;;14.22;49.05;101356.28;5041480;28;20215;-62
2023/03/29 09:41:28;;;;;;;7.97;7.13;;;11.30;71.00;;;14.20;49.20;101358.31;5056803;28;20194;-61
2023/03/29 09:44:01;;;;;;;7.57;6.87;;;11.20;71.30;;;14.15;49.34;101359.84;5043461;28;20206;-64
2023/03/29 09:46:39;;;;;;;6.87;6.20;;;11.30;71.40;;;14.10;49.57;101348.97;5044742;28;20293;-63
2023/03/29 09:49:16;;;;;;;8.40;6.57;;;11.30;71.40;;;14.16;49.70;101348.28;5050037;28;20194;-61
2023/03/29 09:51:48;;;;;;;7.17;6.47;;;11.30;71.50;;;14.20;49.66;101350.38;5052338;28;20225;-64
2023/03/29 09:54:15;;;;;;;7.93;6.77;;;11.30;71.70;;;14.00;50.43;101351.09;5044359;28;20213;-64
2023/03/29 09:56:43;;;;;;;8.43;7.60;;;11.20;72.30;;;13.94;50.49;101351.81;5052645;28;20205;-64
2023/03/29 09:59:11;;;;;;;6.87;6.17;;;11.20;72.20;;;13.98;50.54;101353.06;5048765;28;20272;-64
2023/03/29 10:01:44;;;;;;;8.67;7.77;;;11.20;72.30;;;13.97;50.83;101351.44;5050342;28;20198;-62
2023/03/29 10:04:12;;;;;;;8.43;6.93;;;11.20;73.10;;;14.05;51.09;101354.00;5048967;28;20210;-62
2023/03/29 10:06:48;;;;;;;9.90;7.10;;;11.20;73.40;;;14.02;51.50;101338.50;5048135;28;20229;-65
2023/03/29 10:09:19;;;;;;;9.43;8.52;;;11.20;74.20;;;14.66;50.24;101337.75;5056616;28;20420;-62
2023/03/29 10:11:51;;;;;;;9.67;7.13;;;11.20;74.70;;;14.63;50.31;101338.09;5057158;28;20197;-62
2023/03/29 10:14:25;;;;;;;12.50;8.57;;;11.40;74.50;;;14.65;50.20;101345.88;5059876;28;20231;-63
2023/03/29 10:16:56;;;;;;;7.70;6.90;;;11.40;74.10;;;14.65;50.20;101336.09;5055841;28;20673;-63
2023/03/29 10:19:29;;;;;;;11.13;8.40;;;11.50;73.70;;;14.56;50.60;101342.50;5046598;28;20225;-61
2023/03/29 10:22:03;;;;;;;8.17;7.37;;;11.60;73.70;;;14.47;51.03;101340.16;5047534;28;20260;-62
2023/03/29 10:24:30;;;;;;;7.73;6.93;;;11.60;73.70;;;14.51;50.59;101334.28;5055828;28;20286;-62
2023/03/29 10:27:01;;;;;;;7.07;6.13;;;11.60;73.30;;;14.66;50.57;101340.41;5044829;28;20283;-66
2023/03/29 10:29:37;;;;;;;9.40;8.50;;;11.70;73.50;;;14.88;50.02;101336.75;5050480;28;20780;-62
2023/03/29 10:32:17;;;;;;;12.57;7.87;;;11.70;74.20;;;14.83;50.05;101338.34;5050259;28;20220;-63